createdAt,value
2023-03-01T00:02:13.380Z,7.32
2023-03-01T00:04:42.821Z,6.95
2023-03-01T00:07:11.460Z,6.63
2023-03-01T00:09:42.980Z,7.03
2023-03-01T00:12:15.436Z,8.10
2023-03-01T00:14:49.903Z,7.20
2023-03-01T00:17:26.050Z,6.78
2023-03-01T00:19:56.857Z,7.82
2023-03-01T00:22:26.012Z,7.55
2023-03-01T00:24:55.179Z,7.30
2023-03-01T00:27:23.813Z,7.95
2023-03-01T00:29:52.126Z,7.68
2023-03-01T00:32:23.551Z,7.82
2023-03-01T00:34:56.041Z,7.18
2023-03-01T00:37:26.513Z,7.93
2023-03-01T00:39:58.408Z,7.70
2023-03-01T00:42:27.710Z,7.95
2023-03-01T00:44:58.946Z,7.57
2023-03-01T00:47:34.666Z,8.35
2023-03-01T00:50:03.474Z,7.90
2023-03-01T00:52:42.128Z,7.47
2023-03-01T00:55:11.924Z,8.50
2023-03-01T00:57:46.013Z,7.47
2023-03-01T01:00:15.439Z,7.63
2023-03-01T01:03:03.081Z,8.25
2023-03-01T01:05:37.434Z,7.47
2023-03-01T01:08:16.664Z,6.93
2023-03-01T01:10:45.777Z,8.13
2023-03-01T01:13:15.093Z,8.55
2023-03-01T01:15:45.542Z,7.90
2023-03-01T01:18:17.071Z,7.15
2023-03-01T01:20:54.413Z,8.13
2023-03-01T01:23:25.178Z,7.63
2023-03-01T01:26:07.309Z,7.47
2023-03-01T01:28:39.165Z,7.88
2023-03-01T01:31:08.030Z,7.72
2023-03-01T01:33:45.416Z,8.20
2023-03-01T01:36:16.112Z,9.45
2023-03-01T01:38:49.005Z,8.50
2023-03-01T01:41:18.494Z,7.60
2023-03-01T01:43:52.184Z,7.85
2023-03-01T01:46:21.539Z,8.00
2023-03-01T01:49:01.564Z,8.07
2023-03-01T01:51:39.514Z,8.05
2023-03-01T01:54:11.925Z,8.23
2023-03-01T01:56:40.880Z,7.78
2023-03-01T01:59:09.362Z,7.55
2023-03-01T02:01:40.640Z,8.52
2023-03-01T02:04:09.385Z,8.45
2023-03-01T02:06:43.506Z,8.05
2023-03-01T02:09:15.796Z,8.20
2023-03-01T02:11:53.051Z,8.32
2023-03-01T02:14:22.638Z,8.52
2023-03-01T02:16:55.123Z,8.15
2023-03-01T02:19:49.744Z,8.23
2023-03-01T02:22:36.789Z,8.48
2023-03-01T02:25:19.292Z,8.10
2023-03-01T02:28:17.354Z,8.52
2023-03-01T02:31:05.164Z,8.30
2023-03-01T02:33:37.180Z,9.18
2023-03-01T02:36:07.901Z,8.73
2023-03-01T02:38:37.490Z,8.52
2023-03-01T02:41:07.901Z,8.68
2023-03-01T02:43:37.477Z,8.80
2023-03-01T02:46:09.183Z,8.60
2023-03-01T02:48:46.131Z,9.57
2023-03-01T02:51:29.469Z,9.10
2023-03-01T02:54:19.010Z,8.63
2023-03-01T02:56:49.227Z,7.88
2023-03-01T02:59:22.487Z,8.48
2023-03-01T03:01:53.467Z,8.45
2023-03-01T03:04:24.997Z,9.52
2023-03-01T03:07:00.175Z,8.65
2023-03-01T03:09:47.769Z,9.50
2023-03-01T03:12:21.855Z,9.40
2023-03-01T03:14:56.756Z,9.73
2023-03-01T03:17:44.116Z,9.43
2023-03-01T03:20:19.978Z,9.40
2023-03-01T03:23:05.357Z,8.35
2023-03-01T03:25:52.855Z,9.27
2023-03-01T03:28:40.939Z,9.00
2023-03-01T03:31:25.799Z,9.68
2023-03-01T03:34:03.930Z,8.82
2023-03-01T03:36:57.589Z,8.25
2023-03-01T03:39:40.023Z,9.10
2023-03-01T03:42:20.319Z,9.02
2023-03-01T03:45:01.194Z,8.75
2023-03-01T03:47:47.273Z,8.52
2023-03-01T03:50:32.038Z,8.75
2023-03-01T03:53:11.908Z,8.82
2023-03-01T03:55:45.497Z,9.18
2023-03-01T03:58:20.515Z,9.80
2023-03-01T04:01:02.128Z,8.57
2023-03-01T04:03:47.634Z,9.00
2023-03-01T04:06:16.533Z,10.02
2023-03-01T04:08:46.151Z,9.20
2023-03-01T04:11:29.742Z,9.35
2023-03-01T04:13:59.452Z,9.63
2023-03-01T04:19:27.953Z,8.82
2023-03-01T04:22:08.378Z,8.93
2023-03-01T04:24:53.032Z,9.52
2023-03-01T04:27:26.403Z,9.95
2023-03-01T04:30:02.861Z,9.32
2023-03-01T04:32:51.297Z,9.85
2023-03-01T04:35:23.735Z,9.85
2023-03-01T04:38:05.607Z,10.38
2023-03-01T04:40:50.985Z,9.60
2023-03-01T04:43:31.052Z,9.65
2023-03-01T04:46:15.308Z,8.52
2023-03-01T04:49:00.197Z,9.55
2023-03-01T04:51:41.676Z,10.25
2023-03-01T04:54:23.171Z,8.45
2023-03-01T04:56:59.443Z,9.73
2023-03-01T04:59:37.775Z,9.38
2023-03-01T05:02:06.897Z,10.38
2023-03-01T05:04:35.692Z,8.93
2023-03-01T05:07:09.510Z,8.82
2023-03-01T05:09:39.416Z,9.60
2023-03-01T05:12:08.495Z,9.45
2023-03-01T05:14:39.509Z,8.93
2023-03-01T05:17:08.893Z,9.38
2023-03-01T05:19:37.912Z,9.30
2023-03-01T05:22:11.336Z,9.95
2023-03-01T05:24:50.129Z,10.07
2023-03-01T05:27:33.339Z,10.18
2023-03-01T05:32:57.274Z,9.05
2023-03-01T05:35:38.273Z,10.48
2023-03-01T05:38:14.167Z,9.25
2023-03-01T05:40:55.070Z,9.65
2023-03-01T05:43:36.229Z,10.23
2023-03-01T05:46:21.595Z,9.35
2023-03-01T05:49:01.182Z,9.20
2023-03-01T05:51:35.649Z,9.05
2023-03-01T05:54:08.141Z,10.35
2023-03-01T05:56:38.082Z,11.15
2023-03-01T05:59:09.215Z,10.95
2023-03-01T06:01:38.310Z,9.48
2023-03-01T06:04:07.718Z,9.80
2023-03-01T06:06:39.476Z,9.63
2023-03-01T06:09:10.775Z,10.38
2023-03-01T06:11:39.408Z,9.77
2023-03-01T06:14:16.254Z,10.50
2023-03-01T06:16:45.812Z,10.02
2023-03-01T06:19:14.133Z,9.90
2023-03-01T06:21:42.626Z,10.60
2023-03-01T06:24:11.088Z,10.43
2023-03-01T06:26:43.601Z,10.07
2023-03-01T06:29:16.700Z,10.23
2023-03-01T06:31:54.690Z,10.60
2023-03-01T06:34:24.021Z,9.90
2023-03-01T06:36:52.544Z,10.60
2023-03-01T06:39:24.188Z,10.43
2023-03-01T06:41:54.236Z,9.93
2023-03-01T06:44:23.356Z,9.13
2023-03-01T06:46:54.443Z,11.20
2023-03-01T06:49:23.281Z,9.57
2023-03-01T06:51:51.755Z,10.40
2023-03-01T06:54:23.160Z,9.88
2023-03-01T06:59:26.481Z,10.35
2023-03-01T07:01:55.115Z,10.63
2023-03-01T07:04:25.988Z,10.38
2023-03-01T07:06:56.203Z,11.25
2023-03-01T07:09:25.366Z,10.63
2023-03-01T07:11:54.780Z,10.32
2023-03-01T07:14:26.790Z,10.90
2023-03-01T07:16:56.282Z,9.68
2023-03-01T07:19:27.359Z,10.52
2023-03-01T07:21:58.646Z,11.05
2023-03-01T07:24:30.290Z,9.40
2023-03-01T07:27:02.344Z,10.18
2023-03-01T07:29:37.449Z,10.45
2023-03-01T07:32:07.225Z,10.48
2023-03-01T07:34:40.876Z,10.30
2023-03-01T07:37:09.991Z,10.07
2023-03-01T07:39:39.168Z,10.45
2023-03-01T07:42:08.865Z,11.00
2023-03-01T07:44:37.705Z,10.95
2023-03-01T07:47:06.602Z,10.88
2023-03-01T07:49:37.278Z,10.43
2023-03-01T07:52:07.633Z,10.32
2023-03-01T07:54:36.315Z,10.90
2023-03-01T07:57:07.889Z,10.60
2023-03-01T07:59:36.382Z,10.02
2023-03-01T08:02:10.193Z,11.50
2023-03-01T08:04:44.129Z,10.95
2023-03-01T08:07:13.049Z,9.10
2023-03-01T08:09:45.546Z,10.18
2023-03-01T08:12:17.295Z,8.93
2023-03-01T08:14:45.748Z,9.93
2023-03-01T08:17:15.869Z,10.45
2023-03-01T08:22:21.989Z,9.68
2023-03-01T08:25:09.905Z,10.70
2023-03-01T08:27:57.607Z,9.68
2023-03-01T08:30:45.215Z,9.50
2023-03-01T08:33:25.755Z,9.25
2023-03-01T08:35:54.219Z,8.68
2023-03-01T08:38:25.518Z,9.60
2023-03-01T08:40:55.936Z,8.50
2023-03-01T08:43:35.042Z,8.93
2023-03-01T08:46:06.629Z,9.48
2023-03-01T08:48:44.027Z,9.18
2023-03-01T08:51:37.674Z,9.40
2023-03-01T08:54:23.526Z,9.18
2023-03-01T08:56:54.585Z,9.73
2023-03-01T08:59:38.135Z,9.45
2023-03-01T09:02:23.259Z,9.23
2023-03-01T09:04:59.517Z,8.82
2023-03-01T09:07:47.125Z,8.38
2023-03-01T09:10:38.901Z,8.80
2023-03-01T09:13:28.258Z,9.52
2023-03-01T09:16:03.722Z,8.23
2023-03-01T09:18:53.275Z,8.32
2023-03-01T09:21:38.620Z,8.35
2023-03-01T09:24:15.360Z,7.80
2023-03-01T09:26:50.696Z,6.88
2023-03-01T09:29:26.931Z,7.22
2023-03-01T09:31:56.583Z,8.63
2023-03-01T09:34:53.896Z,7.88
2023-03-01T09:37:31.879Z,8.00
2023-03-01T09:40:07.532Z,6.63
2023-03-01T09:43:01.548Z,8.15
2023-03-01T09:45:46.297Z,7.60
2023-03-01T09:48:37.841Z,7.53
2023-03-01T09:51:43.902Z,7.90
2023-03-01T09:54:31.526Z,7.38
2023-03-01T09:57:22.328Z,7.53
2023-03-01T10:00:20.825Z,8.05
2023-03-01T10:03:20.066Z,6.95
2023-03-01T10:06:27.415Z,7.80
2023-03-01T10:09:20.508Z,7.60
2023-03-01T10:11:53.864Z,7.28
2023-03-01T10:14:34.558Z,7.57
2023-03-01T10:17:11.315Z,7.40
2023-03-01T10:19:47.630Z,7.47
2023-03-01T10:22:35.859Z,7.30
2023-03-01T10:25:29.754Z,7.43
2023-03-01T10:28:26.718Z,7.13
2023-03-01T10:31:15.742Z,7.18
2023-03-01T10:34:03.239Z,7.15
2023-03-01T10:36:52.701Z,7.05
2023-03-01T10:39:59.271Z,6.75
2023-03-01T10:42:50.293Z,7.50
2023-03-01T10:45:31.844Z,6.57
2023-03-01T10:48:08.729Z,6.55
2023-03-01T10:50:44.841Z,7.75
2023-03-01T10:53:34.108Z,7.32
2023-03-01T10:56:15.154Z,6.25
2023-03-01T10:59:05.923Z,6.50
2023-03-01T11:01:41.897Z,6.25
2023-03-01T11:04:13.771Z,6.38
2023-03-01T11:06:43.022Z,6.25
2023-03-01T11:09:17.564Z,7.00
2023-03-01T11:11:48.720Z,6.20
2023-03-01T11:14:26.262Z,6.38
2023-03-01T11:17:13.671Z,6.70
2023-03-01T11:19:46.926Z,6.00
2023-03-01T11:22:32.835Z,6.63
2023-03-01T11:25:10.395Z,5.88
2023-03-01T11:27:46.657Z,5.85
2023-03-01T11:30:15.505Z,5.55
2023-03-01T11:33:21.386Z,6.00
2023-03-01T11:35:58.275Z,5.72
2023-03-01T11:38:35.139Z,6.15
2023-03-01T11:41:09.051Z,6.25
2023-03-01T11:43:45.639Z,6.32
2023-03-01T11:46:17.153Z,5.75
2023-03-01T11:49:05.552Z,6.55
2023-03-01T11:51:52.529Z,5.78
2023-03-01T11:54:25.397Z,6.07
2023-03-01T11:57:20.208Z,6.50
2023-03-01T11:59:57.148Z,7.15
2023-03-01T12:02:27.497Z,6.10
2023-03-01T12:05:18.146Z,6.13
2023-03-01T12:07:55.597Z,6.13
2023-03-01T12:10:57.792Z,5.85
2023-03-01T12:13:39.472Z,5.38
2023-03-01T12:16:37.444Z,5.43
2023-03-01T12:19:25.640Z,5.65
2023-03-01T12:22:17.956Z,5.53
2023-03-01T12:25:04.659Z,5.32
2023-03-01T12:27:41.901Z,5.35
2023-03-01T12:30:19.267Z,4.82
2023-03-01T12:33:15.009Z,5.38
2023-03-01T12:35:42.976Z,5.40
2023-03-01T12:38:16.177Z,5.20
2023-03-01T12:41:10.655Z,5.10
2023-03-01T12:43:38.880Z,5.72
2023-03-01T12:46:30.680Z,5.13
2023-03-01T12:49:09.963Z,5.32
2023-03-01T12:51:38.204Z,5.57
2023-03-01T12:54:16.452Z,5.82
2023-03-01T12:56:53.502Z,5.32
2023-03-01T12:59:25.004Z,5.28
2023-03-01T13:02:01.076Z,5.00
2023-03-01T13:04:35.405Z,5.22
2023-03-01T13:07:12.426Z,5.68
2023-03-01T13:09:44.605Z,5.20
2023-03-01T13:12:31.591Z,5.07
2023-03-01T13:15:25.432Z,5.35
2023-03-01T13:18:13.973Z,5.40
2023-03-01T13:20:45.215Z,4.95
2023-03-01T13:23:22.725Z,5.35
2023-03-01T13:26:14.585Z,5.22
2023-03-01T13:28:50.805Z,6.00
2023-03-01T13:31:19.499Z,5.65
2023-03-01T13:33:49.202Z,6.30
2023-03-01T13:36:29.828Z,5.85
2023-03-01T13:39:06.441Z,5.72
2023-03-01T13:41:42.938Z,5.72
2023-03-01T13:44:27.285Z,5.25
2023-03-01T13:46:58.159Z,5.75
2023-03-01T13:49:45.248Z,4.95
2023-03-01T13:52:40.314Z,4.80
2023-03-01T13:55:17.836Z,5.88
2023-03-01T13:57:49.518Z,5.60
2023-03-01T14:00:38.455Z,4.80
2023-03-01T14:03:25.903Z,4.80
2023-03-01T14:06:13.975Z,5.10
2023-03-01T14:08:51.238Z,5.57
2023-03-01T14:11:26.285Z,5.43
2023-03-01T14:14:00.535Z,5.10
2023-03-01T14:16:52.635Z,5.28
2023-03-01T14:19:32.664Z,5.65
2023-03-01T14:22:20.487Z,5.70
2023-03-01T14:25:08.587Z,5.47
2023-03-01T14:27:45.905Z,6.03
2023-03-01T14:30:22.206Z,5.07
2023-03-01T14:33:04.541Z,5.10
2023-03-01T14:35:36.383Z,5.32
2023-03-01T14:38:05.354Z,5.28
2023-03-01T14:40:44.290Z,6.25
2023-03-01T14:43:14.180Z,5.80
2023-03-01T14:45:49.053Z,6.07
2023-03-01T14:48:20.885Z,5.82
2023-03-01T14:50:49.356Z,6.47
2023-03-01T14:53:22.096Z,6.07
2023-03-01T14:56:08.256Z,5.60
2023-03-01T14:58:42.439Z,5.45
2023-03-01T15:01:18.973Z,5.25
2023-03-01T15:03:54.995Z,5.30
2023-03-01T15:06:39.238Z,6.15
2023-03-01T15:09:16.842Z,5.85
2023-03-01T15:11:47.524Z,5.28
2023-03-01T15:14:44.108Z,5.43
2023-03-01T15:17:22.972Z,5.90
2023-03-01T15:19:51.281Z,5.40
2023-03-01T15:22:19.784Z,5.43
2023-03-01T15:24:51.288Z,5.35
2023-03-01T15:27:25.397Z,5.60
2023-03-01T15:30:00.115Z,5.38
2023-03-01T15:32:47.848Z,5.30
2023-03-01T15:35:55.045Z,4.40
2023-03-01T15:38:52.873Z,4.75
2023-03-01T15:41:28.344Z,5.15
2023-03-01T15:43:59.850Z,5.05
2023-03-01T15:46:42.132Z,5.20
2023-03-01T15:49:28.782Z,5.18
2023-03-01T15:51:57.838Z,5.13
2023-03-01T15:54:28.525Z,6.05
2023-03-01T15:57:16.369Z,5.07
2023-03-01T15:59:55.239Z,5.10
2023-03-01T16:02:28.559Z,5.72
2023-03-01T16:04:58.275Z,5.40
2023-03-01T16:07:28.904Z,6.32
2023-03-01T16:10:00.622Z,5.57
2023-03-01T16:12:34.351Z,5.35
2023-03-01T16:15:05.576Z,5.20
2023-03-01T16:17:39.376Z,5.00
2023-03-01T16:20:11.331Z,5.15
2023-03-01T16:22:41.992Z,4.73
2023-03-01T16:25:15.560Z,4.57
2023-03-01T16:27:52.131Z,4.85
2023-03-01T16:30:23.189Z,4.18
2023-03-01T16:33:19.040Z,5.70
2023-03-01T16:36:12.491Z,4.95
2023-03-01T16:38:49.409Z,5.45
2023-03-01T16:41:24.059Z,4.75
2023-03-01T16:43:57.104Z,5.88
2023-03-01T16:46:33.709Z,5.22
2023-03-01T16:49:07.208Z,5.90
2023-03-01T16:51:41.391Z,5.20
2023-03-01T16:54:11.028Z,5.90
2023-03-01T16:56:40.654Z,5.63
2023-03-01T16:59:09.361Z,6.50
2023-03-01T17:01:41.668Z,5.88
2023-03-01T17:04:14.397Z,6.20
2023-03-01T17:06:43.045Z,5.55
2023-03-01T17:09:12.804Z,5.15
2023-03-01T17:11:41.584Z,5.65
2023-03-01T17:14:10.135Z,4.50
2023-03-01T17:16:38.732Z,4.85
2023-03-01T17:19:07.731Z,5.07
2023-03-01T17:21:36.654Z,4.70
2023-03-01T17:24:07.046Z,3.88
2023-03-01T17:26:41.692Z,4.30
2023-03-01T17:29:11.681Z,4.28
2023-03-01T17:31:40.447Z,4.43
2023-03-01T17:34:09.268Z,4.35
2023-03-01T17:36:44.696Z,4.03
2023-03-01T17:39:15.553Z,3.70
2023-03-01T17:41:44.672Z,3.90
2023-03-01T17:44:13.776Z,3.67
2023-03-01T17:46:43.556Z,4.63
2023-03-01T17:49:12.210Z,3.83
2023-03-01T17:51:41.428Z,4.20
2023-03-01T17:54:09.961Z,4.03
2023-03-01T17:56:39.238Z,3.40
2023-03-01T17:59:10.695Z,4.43
2023-03-01T18:01:42.613Z,4.90
2023-03-01T18:04:44.999Z,4.47
2023-03-01T18:07:17.589Z,4.70
2023-03-01T18:09:48.512Z,5.20
2023-03-01T18:12:16.910Z,5.13
2023-03-01T18:14:48.336Z,5.95
2023-03-01T18:17:26.907Z,4.47
2023-03-01T18:19:58.891Z,4.30
2023-03-01T18:22:37.857Z,4.47
2023-03-01T18:25:09.004Z,4.55
2023-03-01T18:27:54.156Z,4.47
2023-03-01T18:30:25.497Z,4.70
2023-03-01T18:33:07.472Z,5.05
2023-03-01T18:35:39.809Z,4.93
2023-03-01T18:38:09.342Z,5.05
2023-03-01T18:40:38.737Z,5.72
2023-03-01T18:43:10.706Z,5.15
2023-03-01T18:45:45.253Z,4.72
2023-03-01T18:48:22.150Z,5.30
2023-03-01T18:50:53.010Z,4.72
2023-03-01T18:53:21.758Z,6.15
2023-03-01T18:56:01.335Z,5.90
2023-03-01T18:58:34.541Z,5.07
2023-03-01T19:01:13.369Z,5.63
2023-03-01T19:03:48.879Z,6.20
2023-03-01T19:06:17.625Z,5.05
2023-03-01T19:08:48.129Z,5.78
2023-03-01T19:11:18.088Z,5.68
2023-03-01T19:13:47.422Z,6.25
2023-03-01T19:16:20.071Z,5.72
2023-03-01T19:18:59.671Z,5.20
2023-03-01T19:21:35.341Z,4.50
2023-03-01T19:24:04.516Z,5.38
2023-03-01T19:26:35.940Z,5.75
2023-03-01T19:29:10.723Z,5.63
2023-03-01T19:31:40.450Z,5.20
2023-03-01T19:34:12.292Z,5.15
2023-03-01T19:36:44.788Z,5.13
2023-03-01T19:39:14.201Z,5.18
2023-03-01T19:41:43.677Z,5.72
2023-03-01T19:44:15.169Z,5.38
2023-03-01T19:46:44.048Z,4.95
2023-03-01T19:49:12.725Z,5.35
2023-03-01T19:51:41.149Z,6.20
2023-03-01T19:54:14.791Z,5.47
2023-03-01T19:56:45.483Z,5.50
2023-03-01T19:59:14.104Z,5.03
2023-03-01T20:01:45.387Z,5.03
2023-03-01T20:04:16.938Z,5.78
2023-03-01T20:06:49.124Z,5.28
2023-03-01T20:09:22.132Z,4.75
2023-03-01T20:11:52.399Z,4.88
2023-03-01T20:14:23.727Z,5.50
2023-03-01T20:16:52.702Z,5.07
2023-03-01T20:19:26.834Z,5.18
2023-03-01T20:21:57.772Z,5.63
2023-03-01T20:24:26.795Z,5.32
2023-03-01T20:26:55.240Z,5.20
2023-03-01T20:29:25.220Z,5.63
2023-03-01T20:31:54.396Z,5.45
2023-03-01T20:34:23.181Z,5.63
2023-03-01T20:37:02.759Z,5.38
2023-03-01T20:39:32.204Z,5.28
2023-03-01T20:42:00.928Z,5.18
2023-03-01T20:44:34.880Z,5.22
2023-03-01T20:47:04.618Z,5.50
2023-03-01T20:49:33.465Z,5.18
2023-03-01T20:52:03.348Z,6.03
2023-03-01T20:54:32.957Z,5.45
2023-03-01T20:57:03.381Z,5.68
2023-03-01T20:59:34.870Z,5.78
2023-03-01T21:02:05.920Z,5.30
2023-03-01T21:04:34.970Z,5.13
2023-03-01T21:07:03.143Z,5.00
2023-03-01T21:09:41.920Z,5.97
2023-03-01T21:12:13.695Z,5.20
2023-03-01T21:14:47.268Z,5.32
2023-03-01T21:19:45.558Z,4.28
2023-03-01T21:22:15.544Z,4.78
2023-03-01T21:24:44.676Z,5.35
2023-03-01T21:27:18.227Z,4.78
2023-03-01T21:29:47.246Z,4.75
2023-03-01T21:32:16.476Z,4.70
2023-03-01T21:34:45.912Z,4.43
2023-03-01T21:37:14.509Z,5.28
2023-03-01T21:39:43.417Z,5.63
2023-03-01T21:42:11.867Z,6.07
2023-03-01T21:44:42.904Z,4.93
2023-03-01T21:47:11.741Z,5.13
2023-03-01T21:49:40.401Z,4.78
2023-03-01T21:52:09.271Z,4.55
2023-03-01T21:54:40.430Z,4.55
2023-03-01T21:57:09.598Z,5.03
2023-03-01T21:59:39.812Z,4.63
2023-03-01T22:02:09.362Z,4.53
2023-03-01T22:04:37.838Z,4.32
2023-03-01T22:07:06.151Z,4.57
2023-03-01T22:09:36.347Z,4.70
2023-03-01T22:12:05.786Z,4.80
2023-03-01T22:14:35.063Z,5.25
2023-03-01T22:17:03.469Z,4.78
2023-03-01T22:19:32.498Z,4.57
2023-03-01T22:22:03.736Z,4.93
2023-03-01T22:24:34.486Z,4.88
2023-03-01T22:27:02.965Z,4.85
2023-03-01T22:29:32.484Z,4.35
2023-03-01T22:32:06.352Z,4.70
2023-03-01T22:34:35.892Z,5.22
2023-03-01T22:37:10.487Z,5.73
2023-03-01T22:39:40.793Z,4.30
2023-03-01T22:42:10.590Z,4.57
2023-03-01T22:44:42.707Z,4.57
2023-03-01T22:47:12.331Z,4.15
2023-03-01T22:49:41.658Z,4.70
2023-03-01T22:52:10.506Z,5.28
2023-03-01T22:54:41.458Z,4.95
2023-03-01T22:57:10.165Z,5.70
2023-03-01T22:59:41.549Z,5.97
2023-03-01T23:02:10.279Z,5.88
2023-03-01T23:04:38.963Z,4.90
2023-03-01T23:07:09.859Z,5.05
2023-03-01T23:09:38.235Z,4.63
2023-03-01T23:12:09.060Z,4.93
2023-03-01T23:14:41.669Z,5.65
2023-03-01T23:17:10.872Z,4.80
2023-03-01T23:19:44.311Z,5.45
2023-03-01T23:22:12.919Z,4.85
2023-03-01T23:24:42.188Z,4.28
2023-03-01T23:27:15.575Z,4.50
2023-03-01T23:29:48.770Z,4.93
2023-03-01T23:32:17.555Z,4.72
2023-03-01T23:34:48.592Z,5.18
2023-03-01T23:37:19.172Z,4.93
2023-03-01T23:39:47.816Z,5.30
2023-03-01T23:42:16.210Z,5.18
2023-03-01T23:44:45.541Z,5.30
2023-03-01T23:47:14.653Z,4.70
2023-03-01T23:49:45.375Z,5.78
2023-03-01T23:52:17.399Z,5.40
2023-03-01T23:54:48.225Z,5.80
2023-03-01T23:57:16.806Z,5.72
2023-03-01T23:59:50.759Z,5.30
